Time;durP1;ratioP1;P1;durP2;ratioP2;P2;SDS_P1;SDS_P2;PMS_P1;PMS_P2;Temp;Humidity;BMP_temperature;BMP_pressure;BME280_temperature;BME280_humidity;BME280_pressure;Samples;Min_cycle;Max_cycle;Signal;HPM_P1;HPM_P2
2021/12/03 00:00:42;;;;;;;3.22;1.00;;;;;;;;;;5008064;28;20065;-58
2021/12/03 00:03:08;;;;;;;3.05;1.13;;;;;;;;;;5011079;28;20048;-58
2021/12/03 00:05:35;;;;;;;3.03;1.05;;;;;;;;;;5008756;28;20092;-57
2021/12/03 00:08:01;;;;;;;2.70;1.00;;;;;;;;;;5009232;28;20042;-58
2021/12/03 00:10:27;;;;;;;2.72;0.95;;;;;;;;;;5008547;28;20045;-58
2021/12/03 00:12:54;;;;;;;2.70;1.02;;;;;;;;;;4990771;28;20053;-56
2021/12/03 00:15:23;;;;;;;3.58;1.40;;;;;;;;;;5008262;28;20050;-59
2021/12/03 00:17:49;;;;;;;3.80;1.38;;;;;;;;;;5009021;28;20046;-58
2021/12/03 00:20:16;;;;;;;2.75;1.08;;;;;;;;;;5008507;28;20399;-57
2021/12/03 00:22:43;;;;;;;2.72;1.35;;;;;;;;;;5008674;28;20038;-58
2021/12/03 00:25:09;;;;;;;2.85;1.20;;;;;;;;;;5009025;28;20048;-57
2021/12/03 00:27:36;;;;;;;3.33;1.48;;;;;;;;;;5008450;28;20054;-55
2021/12/03 00:30:03;;;;;;;2.75;1.10;;;;;;;;;;5006402;28;20855;-58
2021/12/03 00:32:29;;;;;;;3.05;1.10;;;;;;;;;;5008773;28;20134;-59
2021/12/03 00:34:55;;;;;;;3.63;1.27;;;;;;;;;;4991927;28;20041;-53
2021/12/03 00:37:21;;;;;;;4.03;1.10;;;;;;;;;;5008593;28;20095;-59
2021/12/03 00:40:08;;;;;;;3.40;1.20;;;;;;;;;;4983827;28;20050;-57
2021/12/03 00:42:34;;;;;;;3.13;1.35;;;;;;;;;;4986228;28;20045;-60
2021/12/03 00:45:01;;;;;;;3.25;1.35;;;;;;;;;;4985005;28;20213;-59
2021/12/03 00:47:27;;;;;;;5.72;1.17;;;;;;;;;;4986540;28;20710;-59
2021/12/03 00:49:53;;;;;;;4.57;1.13;;;;;;;;;;4987187;28;20038;-60
2021/12/03 00:52:20;;;;;;;2.75;1.10;;;;;;;;;;4985389;28;20050;-59
2021/12/03 00:54:46;;;;;;;3.38;1.35;;;;;;;;;;4986015;28;20042;-58
2021/12/03 00:57:12;;;;;;;2.80;1.15;;;;;;;;;;4985556;28;20372;-58
2021/12/03 00:59:38;;;;;;;2.70;1.00;;;;;;;;;;4984445;28;20042;-58
2021/12/03 01:02:04;;;;;;;3.30;1.23;;;;;;;;;;4980892;28;20049;-56
2021/12/03 01:04:30;;;;;;;4.20;1.55;;;;;;;;;;4985666;28;20542;-58
2021/12/03 01:06:56;;;;;;;3.88;1.60;;;;;;;;;;4986896;28;20129;-59
2021/12/03 01:09:22;;;;;;;5.25;1.17;;;;;;;;;;4983698;28;20745;-59
2021/12/03 01:11:48;;;;;;;4.28;1.77;;;;;;;;;;4985894;28;20064;-58
2021/12/03 01:14:14;;;;;;;4.53;1.88;;;;;;;;;;4986722;28;20054;-58
2021/12/03 01:16:40;;;;;;;5.15;1.50;;;;;;;;;;4975675;28;20046;-59
2021/12/03 01:19:07;;;;;;;3.40;1.50;;;;;;;;;;5009837;28;20141;-59
2021/12/03 01:21:33;;;;;;;3.70;1.38;;;;;;;;;;5008835;28;20081;-57
2021/12/03 01:23:59;;;;;;;3.35;1.42;;;;;;;;;;5011446;28;20069;-56
2021/12/03 01:26:25;;;;;;;6.93;1.73;;;;;;;;;;5009102;28;20047;-57
2021/12/03 01:28:51;;;;;;;3.20;1.30;;;;;;;;;;5008554;28;20054;-58
2021/12/03 01:31:17;;;;;;;6.13;1.90;;;;;;;;;;5007378;28;20111;-57
2021/12/03 01:33:44;;;;;;;5.47;2.10;;;;;;;;;;5008308;28;20163;-56
2021/12/03 01:36:10;;;;;;;3.05;1.33;;;;;;;;;;5008782;28;20054;-58
2021/12/03 01:38:36;;;;;;;3.80;1.40;;;;;;;;;;5005898;28;20755;-57
2021/12/03 01:41:02;;;;;;;6.03;2.00;;;;;;;;;;5007456;28;20046;-57
2021/12/03 01:43:28;;;;;;;4.47;2.00;;;;;;;;;;5007132;28;20137;-58
2021/12/03 01:45:58;;;;;;;2.80;1.30;;;;;;;;;;5007176;28;20411;-58
2021/12/03 01:48:24;;;;;;;3.10;1.48;;;;;;;;;;5006074;28;20038;-59
2021/12/03 01:50:51;;;;;;;3.40;1.65;;;;;;;;;;5005976;28;20120;-59
2021/12/03 01:53:18;;;;;;;4.30;2.47;;;;;;;;;;5005479;28;20050;-59
2021/12/03 01:55:45;;;;;;;6.95;2.90;;;;;;;;;;5007459;28;20135;-58
2021/12/03 01:58:11;;;;;;;5.65;2.72;;;;;;;;;;4986519;28;20042;-59
2021/12/03 02:00:39;;;;;;;4.28;2.58;;;;;;;;;;5004932;28;20035;-57
2021/12/03 02:03:06;;;;;;;6.70;3.00;;;;;;;;;;5008535;28;20041;-58
2021/12/03 02:05:32;;;;;;;6.03;3.10;;;;;;;;;;5004527;28;20037;-58
2021/12/03 02:07:58;;;;;;;5.18;2.40;;;;;;;;;;5006675;28;20054;-57
2021/12/03 02:10:24;;;;;;;6.93;2.33;;;;;;;;;;4986525;28;20052;-56
2021/12/03 02:12:50;;;;;;;5.18;2.25;;;;;;;;;;5006975;28;20050;-57
2021/12/03 02:15:17;;;;;;;3.30;1.55;;;;;;;;;;5008468;28;20045;-60
2021/12/03 02:17:43;;;;;;;2.33;0.70;;;;;;;;;;5006521;28;20038;-57
2021/12/03 02:20:10;;;;;;;1.83;0.68;;;;;;;;;;5006465;28;20047;-58
2021/12/03 02:22:36;;;;;;;1.90;0.70;;;;;;;;;;5006428;28;20026;-59
2021/12/03 02:25:03;;;;;;;3.65;0.90;;;;;;;;;;5008830;28;20052;-59
2021/12/03 02:27:29;;;;;;;2.05;0.70;;;;;;;;;;5006522;28;20061;-59
2021/12/03 02:29:55;;;;;;;1.98;0.80;;;;;;;;;;4986626;28;20046;-60
2021/12/03 02:32:21;;;;;;;3.13;1.00;;;;;;;;;;4989253;28;20352;-58
2021/12/03 02:34:46;;;;;;;1.58;0.60;;;;;;;;;;5006998;28;20048;-58
2021/12/03 02:37:13;;;;;;;2.08;0.80;;;;;;;;;;5006485;28;20040;-59
2021/12/03 02:39:38;;;;;;;3.28;1.00;;;;;;;;;;5004039;28;20609;-59
2021/12/03 02:42:05;;;;;;;2.25;0.95;;;;;;;;;;5006275;28;20041;-59
2021/12/03 02:44:31;;;;;;;3.90;0.90;;;;;;;;;;5005910;28;20467;-57
2021/12/03 02:46:57;;;;;;;2.35;0.70;;;;;;;;;;5006221;28;20046;-58
2021/12/03 02:49:23;;;;;;;2.33;0.80;;;;;;;;;;5005600;28;20862;-59
2021/12/03 02:51:48;;;;;;;2.13;0.65;;;;;;;;;;5006261;28;20033;-57
2021/12/03 02:54:14;;;;;;;2.60;0.90;;;;;;;;;;5005825;28;20049;-57
2021/12/03 02:56:40;;;;;;;4.65;0.98;;;;;;;;;;5006453;28;20099;-57
2021/12/03 02:59:06;;;;;;;2.50;0.85;;;;;;;;;;5005650;28;20636;-57
2021/12/03 03:01:32;;;;;;;2.28;0.73;;;;;;;;;;5004993;28;20073;-58
2021/12/03 03:03:58;;;;;;;3.00;0.80;;;;;;;;;;5006819;28;20057;-58
2021/12/03 03:06:24;;;;;;;3.33;0.90;;;;;;;;;;5007484;28;20122;-58
2021/12/03 03:08:50;;;;;;;2.55;0.90;;;;;;;;;;5007301;28;20141;-56
2021/12/03 03:11:17;;;;;;;3.97;1.67;;;;;;;;;;5007676;28;20060;-57
2021/12/03 03:13:43;;;;;;;3.88;1.30;;;;;;;;;;5007349;28;20494;-58
2021/12/03 03:16:09;;;;;;;5.07;1.10;;;;;;;;;;5007903;28;20044;-59
2021/12/03 03:18:35;;;;;;;3.17;1.27;;;;;;;;;;5007146;28;20053;-59
2021/12/03 03:21:02;;;;;;;3.60;1.60;;;;;;;;;;5007327;28;20038;-60
2021/12/03 03:23:28;;;;;;;4.10;1.00;;;;;;;;;;5005355;28;20085;-59
2021/12/03 03:25:54;;;;;;;2.47;0.80;;;;;;;;;;5008683;28;20061;-59
2021/12/03 03:28:20;;;;;;;3.33;1.10;;;;;;;;;;5008482;28;20580;-57
2021/12/03 03:30:47;;;;;;;3.22;0.90;;;;;;;;;;5009818;28;20166;-58
2021/12/03 03:33:14;;;;;;;3.03;0.90;;;;;;;;;;5011032;28;20038;-57
2021/12/03 03:35:40;;;;;;;2.63;0.80;;;;;;;;;;5011089;28;20100;-59
2021/12/03 03:38:07;;;;;;;2.35;0.70;;;;;;;;;;5011541;28;20061;-59
2021/12/03 03:40:33;;;;;;;1.77;0.60;;;;;;;;;;5010364;28;20041;-58
2021/12/03 03:42:59;;;;;;;7.65;0.82;;;;;;;;;;5009787;28;20042;-59
2021/12/03 03:45:26;;;;;;;2.40;0.70;;;;;;;;;;5011012;28;20046;-58
2021/12/03 03:47:52;;;;;;;2.08;0.68;;;;;;;;;;5012109;28;20045;-58
2021/12/03 03:50:19;;;;;;;2.20;0.80;;;;;;;;;;5009767;28;20044;-58
2021/12/03 03:52:45;;;;;;;2.20;0.70;;;;;;;;;;5011702;28;20054;-58
2021/12/03 03:55:12;;;;;;;2.40;0.75;;;;;;;;;;5011181;28;20490;-54
2021/12/03 03:57:38;;;;;;;2.05;0.70;;;;;;;;;;5010072;28;20045;-59
2021/12/03 04:00:06;;;;;;;3.45;0.80;;;;;;;;;;5008982;28;20564;-59
2021/12/03 04:02:32;;;;;;;3.85;0.90;;;;;;;;;;5009552;28;20092;-58
2021/12/03 04:04:58;;;;;;;2.20;0.80;;;;;;;;;;5007957;28;20056;-59
2021/12/03 04:07:24;;;;;;;3.65;1.10;;;;;;;;;;5009978;28;20034;-59
2021/12/03 04:09:50;;;;;;;3.05;0.90;;;;;;;;;;5008585;28;20045;-58
2021/12/03 04:12:16;;;;;;;3.25;1.10;;;;;;;;;;5009285;28;20399;-58
2021/12/03 04:14:42;;;;;;;2.25;0.75;;;;;;;;;;5007707;28;20057;-59
2021/12/03 04:17:08;;;;;;;3.80;1.20;;;;;;;;;;5008886;28;20439;-58
2021/12/03 04:19:35;;;;;;;3.42;1.33;;;;;;;;;;5007557;28;20045;-58
2021/12/03 04:22:01;;;;;;;4.30;1.73;;;;;;;;;;5009840;28;20068;-59
2021/12/03 04:24:27;;;;;;;2.90;1.30;;;;;;;;;;5009230;28;20042;-58
2021/12/03 04:26:53;;;;;;;3.05;1.40;;;;;;;;;;5009544;28;20048;-57
2021/12/03 04:29:20;;;;;;;5.15;1.75;;;;;;;;;;5008701;28;20046;-58
2021/12/03 04:31:46;;;;;;;3.67;1.55;;;;;;;;;;5007547;28;20041;-60
2021/12/03 04:34:12;;;;;;;3.50;1.67;;;;;;;;;;5008584;28;20061;-59
2021/12/03 04:36:38;;;;;;;3.35;1.40;;;;;;;;;;5008965;28;20102;-58
2021/12/03 04:39:04;;;;;;;4.15;1.58;;;;;;;;;;4990360;28;20041;-59
2021/12/03 04:41:30;;;;;;;4.53;1.70;;;;;;;;;;5006787;28;20045;-59
2021/12/03 04:43:56;;;;;;;3.78;1.42;;;;;;;;;;4958773;28;20136;-60
2021/12/03 04:46:22;;;;;;;3.53;1.30;;;;;;;;;;5008331;28;20038;-60
2021/12/03 04:48:48;;;;;;;4.63;1.42;;;;;;;;;;5008614;28;20042;-59
2021/12/03 04:51:14;;;;;;;3.67;1.60;;;;;;;;;;5012421;28;20084;-59
2021/12/03 04:53:40;;;;;;;3.47;1.58;;;;;;;;;;5007839;28;20060;-58
2021/12/03 04:56:06;;;;;;;3.78;1.65;;;;;;;;;;5010146;28;20033;-59
2021/12/03 04:58:32;;;;;;;3.22;1.58;;;;;;;;;;5006496;28;20072;-60
2021/12/03 05:00:59;;;;;;;2.97;1.20;;;;;;;;;;5007705;28;20045;-59
2021/12/03 05:03:25;;;;;;;5.13;1.60;;;;;;;;;;5008718;28;20041;-57
2021/12/03 05:05:55;;;;;;;3.40;1.50;;;;;;;;;;5008347;28;20065;-58
2021/12/03 05:08:21;;;;;;;3.10;1.20;;;;;;;;;;5008883;28;20407;-60
2021/12/03 05:10:47;;;;;;;3.35;1.60;;;;;;;;;;5010023;28;20042;-58
2021/12/03 05:13:20;;;;;;;3.63;1.50;;;;;;;;;;5008969;28;20048;-57
2021/12/03 05:15:46;;;;;;;2.78;1.17;;;;;;;;;;5009933;28;20177;-58
2021/12/03 05:18:13;;;;;;;3.63;1.40;;;;;;;;;;5010744;28;20046;-58
2021/12/03 05:20:40;;;;;;;4.07;1.60;;;;;;;;;;5009297;28;20103;-59
2021/12/03 05:23:06;;;;;;;7.07;1.30;;;;;;;;;;5011127;28;20044;-57
2021/12/03 05:25:33;;;;;;;4.88;1.58;;;;;;;;;;5009197;28;20045;-59
2021/12/03 05:27:59;;;;;;;3.65;1.40;;;;;;;;;;5010561;28;20045;-58
2021/12/03 05:30:25;;;;;;;4.45;1.55;;;;;;;;;;5008314;28;20053;-59
2021/12/03 05:32:51;;;;;;;3.28;1.38;;;;;;;;;;5007860;28;20046;-60
2021/12/03 05:35:17;;;;;;;3.20;1.35;;;;;;;;;;5010121;28;20033;-59
2021/12/03 05:37:43;;;;;;;3.75;1.60;;;;;;;;;;5009046;28;20071;-58
2021/12/03 05:40:10;;;;;;;3.53;1.50;;;;;;;;;;5007324;28;20057;-61
2021/12/03 05:42:37;;;;;;;8.07;1.83;;;;;;;;;;4990427;28;20041;-59
2021/12/03 05:45:04;;;;;;;3.95;1.88;;;;;;;;;;4988943;28;20107;-59
2021/12/03 05:47:30;;;;;;;4.32;1.90;;;;;;;;;;5008368;28;20038;-58
2021/12/03 05:49:56;;;;;;;4.68;1.85;;;;;;;;;;5006348;28;20057;-60
2021/12/03 05:52:21;;;;;;;3.35;1.65;;;;;;;;;;4988891;28;20498;-60
2021/12/03 05:54:47;;;;;;;5.88;2.65;;;;;;;;;;5006313;28;20068;-59
2021/12/03 05:57:13;;;;;;;3.50;1.67;;;;;;;;;;5009120;28;20084;-58
2021/12/03 05:59:39;;;;;;;3.17;1.30;;;;;;;;;;5006448;28;20124;-60
2021/12/03 06:02:05;;;;;;;3.58;1.27;;;;;;;;;;5007260;28;20087;-59
2021/12/03 06:04:32;;;;;;;5.32;1.17;;;;;;;;;;5007194;28;20412;-60
2021/12/03 06:06:58;;;;;;;2.70;1.00;;;;;;;;;;5006605;28;20068;-59
2021/12/03 06:09:24;;;;;;;3.20;1.00;;;;;;;;;;5004782;28;20396;-60
2021/12/03 06:11:50;;;;;;;2.75;1.05;;;;;;;;;;5007389;28;20894;-59
2021/12/03 06:14:16;;;;;;;2.65;1.00;;;;;;;;;;5006707;28;20102;-58
2021/12/03 06:16:42;;;;;;;3.53;1.10;;;;;;;;;;5006800;28;20514;-59
2021/12/03 06:19:08;;;;;;;3.58;1.05;;;;;;;;;;5006425;28;20034;-62
2021/12/03 06:21:33;;;;;;;3.10;1.10;;;;;;;;;;5008392;28;20454;-60
2021/12/03 06:23:59;;;;;;;4.10;1.20;;;;;;;;;;5006666;28;20052;-59
2021/12/03 06:26:25;;;;;;;3.13;1.20;;;;;;;;;;5006516;28;20041;-59
2021/12/03 06:28:51;;;;;;;3.50;1.45;;;;;;;;;;5006441;28;20470;-58
2021/12/03 06:31:17;;;;;;;3.47;1.35;;;;;;;;;;5007216;28;20038;-57
2021/12/03 06:33:43;;;;;;;3.45;1.20;;;;;;;;;;4988509;28;20114;-60
2021/12/03 06:36:09;;;;;;;3.38;1.20;;;;;;;;;;5007940;28;20244;-59
2021/12/03 06:38:38;;;;;;;2.50;1.10;;;;;;;;;;5006103;28;20116;-57
2021/12/03 06:41:04;;;;;;;3.28;1.20;;;;;;;;;;5006906;28;21074;-59
2021/12/03 06:43:30;;;;;;;6.35;1.70;;;;;;;;;;4987667;28;20041;-58
2021/12/03 06:45:56;;;;;;;3.30;1.27;;;;;;;;;;5006572;28;20033;-59
2021/12/03 06:48:23;;;;;;;4.13;1.48;;;;;;;;;;5007012;28;20052;-59
2021/12/03 06:50:50;;;;;;;3.67;1.38;;;;;;;;;;4988923;28;20037;-58
2021/12/03 06:53:17;;;;;;;3.08;1.25;;;;;;;;;;5007177;28;20050;-58
2021/12/03 06:55:47;;;;;;;3.45;1.33;;;;;;;;;;5005746;28;20033;-59
2021/12/03 06:58:16;;;;;;;3.97;1.65;;;;;;;;;;5007357;28;20124;-58
2021/12/03 07:00:43;;;;;;;4.80;1.73;;;;;;;;;;4996873;28;20156;-58
2021/12/03 07:03:09;;;;;;;3.38;1.35;;;;;;;;;;5007270;28;20045;-58
2021/12/03 07:05:35;;;;;;;7.13;1.67;;;;;;;;;;5007451;28;20034;-57
2021/12/03 07:08:00;;;;;;;3.22;1.33;;;;;;;;;;5009681;28;20038;-59
2021/12/03 07:10:26;;;;;;;3.63;1.48;;;;;;;;;;5008846;28;20042;-57
2021/12/03 07:12:52;;;;;;;4.65;1.73;;;;;;;;;;5010583;28;20885;-59
2021/12/03 07:15:18;;;;;;;3.70;1.75;;;;;;;;;;5010157;28;20149;-57
2021/12/03 07:17:47;;;;;;;4.65;1.90;;;;;;;;;;5011957;28;20049;-59
2021/12/03 07:20:13;;;;;;;3.63;1.60;;;;;;;;;;5009400;28;20039;-58
2021/12/03 07:22:38;;;;;;;3.63;1.60;;;;;;;;;;5010122;28;20041;-59
2021/12/03 07:25:05;;;;;;;3.95;1.73;;;;;;;;;;5011241;28;20042;-56
2021/12/03 07:27:31;;;;;;;3.88;1.70;;;;;;;;;;5010389;28;20057;-59
2021/12/03 07:29:57;;;;;;;4.90;1.92;;;;;;;;;;5009823;28;20037;-59
2021/12/03 07:32:23;;;;;;;5.53;1.75;;;;;;;;;;5009353;28;20041;-60
2021/12/03 07:34:50;;;;;;;2.70;1.10;;;;;;;;;;5009394;28;20161;-59
2021/12/03 07:37:15;;;;;;;5.95;1.95;;;;;;;;;;5010856;28;20030;-58
2021/12/03 07:39:41;;;;;;;3.33;1.67;;;;;;;;;;5008220;28;20038;-56
2021/12/03 07:42:07;;;;;;;2.97;1.20;;;;;;;;;;5009921;28;20053;-58
2021/12/03 07:44:33;;;;;;;3.10;1.30;;;;;;;;;;5011314;28;20064;-59
2021/12/03 07:46:59;;;;;;;3.28;1.48;;;;;;;;;;5010900;28;20062;-58
2021/12/03 07:49:26;;;;;;;3.13;1.60;;;;;;;;;;5008631;28;20041;-58
2021/12/03 07:51:52;;;;;;;3.38;1.50;;;;;;;;;;5010414;28;20506;-58
2021/12/03 07:54:18;;;;;;;4.55;2.05;;;;;;;;;;5009149;28;20042;-59
2021/12/03 07:56:44;;;;;;;4.53;2.22;;;;;;;;;;4992884;28;20045;-59
2021/12/03 07:59:10;;;;;;;4.65;2.10;;;;;;;;;;5009364;28;21834;-59
2021/12/03 08:01:36;;;;;;;4.28;2.00;;;;;;;;;;5009884;28;20038;-58
2021/12/03 08:04:02;;;;;;;4.30;1.98;;;;;;;;;;5010631;28;20044;-58
2021/12/03 08:06:28;;;;;;;4.28;2.15;;;;;;;;;;5009736;28;20590;-58
2021/12/03 08:08:54;;;;;;;3.90;2.00;;;;;;;;;;5010732;28;20064;-57
2021/12/03 08:11:20;;;;;;;3.78;1.88;;;;;;;;;;5010551;28;20038;-59
2021/12/03 08:13:46;;;;;;;4.05;1.73;;;;;;;;;;5010365;28;20084;-59
2021/12/03 08:16:12;;;;;;;3.30;1.42;;;;;;;;;;5010132;28;20140;-59
2021/12/03 08:18:37;;;;;;;5.22;1.67;;;;;;;;;;5008813;28;20131;-61
2021/12/03 08:21:04;;;;;;;4.30;1.75;;;;;;;;;;5011167;28;20052;-58
2021/12/03 08:23:29;;;;;;;4.30;1.77;;;;;;;;;;5008757;28;20065;-57
2021/12/03 08:25:56;;;;;;;5.00;2.03;;;;;;;;;;5007849;28;20116;-57
2021/12/03 08:28:22;;;;;;;8.45;2.53;;;;;;;;;;5007553;28;20056;-58
2021/12/03 08:30:48;;;;;;;5.40;2.10;;;;;;;;;;5007784;28;20049;-57
2021/12/03 08:33:14;;;;;;;4.22;2.28;;;;;;;;;;5009788;28;20052;-58
2021/12/03 08:35:40;;;;;;;6.07;2.70;;;;;;;;;;5010383;28;20042;-57
2021/12/03 08:38:06;;;;;;;4.28;2.28;;;;;;;;;;5008162;28;20053;-59
2021/12/03 08:40:32;;;;;;;4.15;2.00;;;;;;;;;;5007476;28;20046;-60
2021/12/03 08:42:58;;;;;;;4.47;2.17;;;;;;;;;;5009147;28;20104;-58
2021/12/03 08:45:25;;;;;;;6.25;2.80;;;;;;;;;;5008302;28;20037;-56
2021/12/03 08:47:54;;;;;;;4.28;2.30;;;;;;;;;;5009611;28;20045;-59
2021/12/03 08:50:32;;;;;;;5.97;3.10;;;;;;;;;;5007454;28;20060;-58
2021/12/03 08:55:33;;;;;;;4.53;2.03;;;;;;;;;;5008082;28;20034;-58
2021/12/03 08:57:59;;;;;;;4.30;2.00;;;;;;;;;;5009046;28;20141;-58
2021/12/03 09:00:25;;;;;;;5.15;2.05;;;;;;;;;;5007544;28;20120;-57
2021/12/03 09:02:51;;;;;;;3.70;1.52;;;;;;;;;;5009484;28;20037;-60
2021/12/03 09:05:17;;;;;;;3.78;1.58;;;;;;;;;;5007740;28;20055;-57
2021/12/03 09:07:43;;;;;;;3.58;1.77;;;;;;;;;;4989242;28;20038;-57
2021/12/03 09:10:12;;;;;;;3.95;1.88;;;;;;;;;;4988181;28;20053;-58
2021/12/03 09:12:38;;;;;;;6.47;1.95;;;;;;;;;;5008048;28;20041;-59
2021/12/03 09:15:08;;;;;;;3.55;1.75;;;;;;;;;;5008115;28;20055;-57
2021/12/03 09:17:56;;;;;;;3.92;1.70;;;;;;;;;;4992036;28;20119;-59
2021/12/03 09:20:36;;;;;;;4.45;1.67;;;;;;;;;;5007288;28;20033;-59
2021/12/03 09:23:07;;;;;;;3.65;1.50;;;;;;;;;;5008731;28;20050;-58
2021/12/03 09:25:35;;;;;;;3.22;1.40;;;;;;;;;;5010612;28;20073;-58
2021/12/03 09:28:04;;;;;;;3.47;1.73;;;;;;;;;;5006833;28;20048;-56
2021/12/03 09:30:36;;;;;;;4.05;1.63;;;;;;;;;;5009261;28;20070;-59
2021/12/03 09:33:07;;;;;;;4.97;1.65;;;;;;;;;;5009630;28;21094;-57
2021/12/03 09:35:38;;;;;;;3.25;1.40;;;;;;;;;;5009165;28;20494;-59
2021/12/03 09:38:04;;;;;;;3.70;1.50;;;;;;;;;;5008925;28;21573;-57
2021/12/03 09:40:31;;;;;;;4.68;1.55;;;;;;;;;;5007917;28;20156;-58
2021/12/03 09:42:57;;;;;;;4.75;1.70;;;;;;;;;;5010768;28;20050;-58
2021/12/03 09:45:24;;;;;;;3.25;1.40;;;;;;;;;;5008688;28;20143;-59
2021/12/03 09:47:51;;;;;;;4.07;1.90;;;;;;;;;;5007703;28;20041;-58
2021/12/03 09:50:17;;;;;;;3.15;1.45;;;;;;;;;;5005884;28;20065;-57
2021/12/03 09:53:04;;;;;;;4.57;1.77;;;;;;;;;;5009789;28;20065;-57
2021/12/03 09:55:30;;;;;;;4.78;2.05;;;;;;;;;;5008482;28;20485;-59
2021/12/03 09:58:35;;;;;;;3.63;1.83;;;;;;;;;;5008287;28;20046;-58
2021/12/03 10:00:55;;;;;;;4.85;2.25;;;;;;;;;;5007682;28;20064;-59
2021/12/03 10:03:36;;;;;;;3.85;1.88;;;;;;;;;;5008925;28;20099;-59
2021/12/03 10:11:58;;;;;;;6.72;1.92;;;;;;;;;;5008727;28;20052;-58
2021/12/03 10:28:22;;;;;;;3.80;1.63;;;;;;;;;;5008542;28;20049;-59
2021/12/03 10:39:06;;;;;;;5.05;2.00;;;;;;;;;;5005885;28;20149;-58
2021/12/03 10:41:41;;;;;;;4.75;2.03;;;;;;;;;;5010314;28;20119;-58
2021/12/03 10:44:16;;;;;;;4.25;2.00;;;;;;;;;;4995008;28;20045;-59
2021/12/03 10:52:13;;;;;;;4.85;2.45;;;;;;;;;;5011143;28;20057;-59
2021/12/03 11:30:09;;;;;;;4.00;1.63;;;;;;;;;;4985469;28;20495;-58
2021/12/03 11:38:13;;;;;;;3.80;1.90;;;;;;;;;;5010283;28;20085;-58
2021/12/03 11:47:07;;;;;;;4.90;2.33;;;;;;;;;;5008372;28;20135;-58
2021/12/03 11:53:08;;;;;;;3.60;1.73;;;;;;;;;;5010840;28;20065;-57
2021/12/03 12:42:27;;;;;;;4.93;3.00;;;;;;;;;;4996675;28;20092;-57
2021/12/03 12:44:49;;;;;;;6.28;2.55;;;;;;;;;;5006419;28;20131;-57
2021/12/03 12:56:21;;;;;;;5.13;2.17;;;;;;;;;;5008071;28;20489;-56
2021/12/03 13:07:58;;;;;;;4.45;2.22;;;;;;;;;;5009333;28;20549;-59
2021/12/03 13:39:14;;;;;;;7.43;2.08;;;;;;;;;;5007360;28;20045;-56
2021/12/03 14:00:35;;;;;;;4.60;2.25;;;;;;;;;;5007978;28;20038;-58
2021/12/03 14:03:49;;;;;;;4.78;2.30;;;;;;;;;;5001713;28;21971;-56
2021/12/03 14:12:18;;;;;;;4.22;1.98;;;;;;;;;;5007335;28;20048;-58
2021/12/03 14:30:08;;;;;;;11.95;2.28;;;;;;;;;;5006869;28;20056;-56
2021/12/03 14:39:24;;;;;;;7.45;2.88;;;;;;;;;;5006900;28;20133;-58
2021/12/03 14:44:25;;;;;;;4.47;2.28;;;;;;;;;;5009155;28;20042;-55
2021/12/03 14:57:15;;;;;;;5.82;2.55;;;;;;;;;;5006920;28;20081;-58
2021/12/03 14:59:52;;;;;;;6.00;3.20;;;;;;;;;;5004495;28;20042;-58
2021/12/03 15:02:40;;;;;;;5.72;2.80;;;;;;;;;;5006553;28;20196;-53
2021/12/03 15:07:40;;;;;;;12.15;3.00;;;;;;;;;;5005708;28;20789;-57
2021/12/03 15:10:13;;;;;;;6.03;3.08;;;;;;;;;;5006720;28;20091;-54
2021/12/03 15:16:06;;;;;;;6.93;3.00;;;;;;;;;;5006355;28;21979;-57
2021/12/03 15:23:37;;;;;;;13.70;3.53;;;;;;;;;;5006327;28;20518;-54
2021/12/03 15:29:27;;;;;;;5.60;3.20;;;;;;;;;;5008853;28;20784;-58
2021/12/03 15:34:29;;;;;;;8.40;3.70;;;;;;;;;;5009763;28;20061;-55
2021/12/03 16:10:58;;;;;;;9.55;3.58;;;;;;;;;;5008722;28;20034;-56
2021/12/03 16:21:27;;;;;;;8.45;2.90;;;;;;;;;;5010302;28;20038;-54
2021/12/03 16:48:41;;;;;;;13.10;2.70;;;;;;;;;;5008371;28;20073;-58
2021/12/03 16:53:25;;;;;;;4.00;1.90;;;;;;;;;;5009460;28;20056;-57
2021/12/03 16:56:03;;;;;;;4.32;2.15;;;;;;;;;;5007545;28;20498;-55
2021/12/03 16:58:29;;;;;;;4.70;1.90;;;;;;;;;;5008017;28;20069;-58
2021/12/03 17:01:04;;;;;;;7.07;2.75;;;;;;;;;;4989549;28;20113;-54
2021/12/03 17:57:59;;;;;;;7.00;2.75;;;;;;;;;;5003359;28;20065;-56
2021/12/03 18:00:47;;;;;;;5.80;3.05;;;;;;;;;;5004218;28;20244;-56
2021/12/03 18:03:43;;;;;;;6.72;3.25;;;;;;;;;;5007602;28;20586;-59
2021/12/03 18:08:43;;;;;;;6.97;3.38;;;;;;;;;;5007710;28;20030;-56
2021/12/03 18:43:53;;;;;;;8.98;4.47;;;;;;;;;;5007596;28;20076;-57
2021/12/03 18:51:52;;;;;;;9.07;4.35;;;;;;;;;;5007994;28;20419;-58
2021/12/03 18:56:49;;;;;;;9.40;4.22;;;;;;;;;;5007260;28;20038;-58
2021/12/03 18:59:16;;;;;;;8.52;3.90;;;;;;;;;;5007445;28;20042;-58
2021/12/03 19:01:42;;;;;;;7.82;4.43;;;;;;;;;;5008692;28;20365;-56
2021/12/03 19:09:09;;;;;;;9.38;4.38;;;;;;;;;;5013499;28;20129;-57
2021/12/03 19:11:42;;;;;;;9.15;4.55;;;;;;;;;;5012506;28;20066;-58
2021/12/03 19:14:08;;;;;;;9.90;4.68;;;;;;;;;;5014860;28;20469;-58
2021/12/03 19:16:34;;;;;;;11.85;4.53;;;;;;;;;;5014404;28;20038;-58
2021/12/03 19:19:01;;;;;;;8.32;4.05;;;;;;;;;;5013657;28;20547;-58
2021/12/03 19:21:28;;;;;;;7.50;4.43;;;;;;;;;;5013573;28;20057;-59
2021/12/03 19:23:55;;;;;;;6.85;4.28;;;;;;;;;;5014904;28;20038;-58
2021/12/03 19:26:22;;;;;;;9.85;4.18;;;;;;;;;;5014041;28;20037;-58
2021/12/03 19:28:49;;;;;;;12.15;4.15;;;;;;;;;;5013820;28;20165;-57
2021/12/03 19:31:16;;;;;;;15.38;5.32;;;;;;;;;;5012245;28;20691;-59
2021/12/03 19:33:42;;;;;;;17.00;4.40;;;;;;;;;;5013137;28;20056;-59
2021/12/03 19:36:09;;;;;;;12.93;4.20;;;;;;;;;;5010830;28;20099;-59
2021/12/03 19:38:38;;;;;;;6.78;3.83;;;;;;;;;;5011827;28;20034;-58
2021/12/03 19:41:13;;;;;;;15.05;3.92;;;;;;;;;;5013505;28;20510;-59
2021/12/03 19:43:46;;;;;;;7.53;4.03;;;;;;;;;;5011237;28;20088;-59
2021/12/03 19:46:18;;;;;;;13.82;4.18;;;;;;;;;;5013092;28;20037;-57
2021/12/03 19:48:50;;;;;;;10.57;4.10;;;;;;;;;;5012083;28;20049;-58
2021/12/03 19:51:19;;;;;;;6.60;3.40;;;;;;;;;;5012428;28;20048;-57
2021/12/03 19:53:55;;;;;;;7.78;3.85;;;;;;;;;;5010233;28;20050;-58
2021/12/03 19:56:24;;;;;;;8.80;4.45;;;;;;;;;;5011171;28;20135;-58
2021/12/03 19:58:52;;;;;;;9.88;3.80;;;;;;;;;;4991752;28;20553;-54
2021/12/03 20:01:18;;;;;;;8.65;4.20;;;;;;;;;;5012236;28;20046;-57
2021/12/03 20:03:44;;;;;;;10.40;4.65;;;;;;;;;;5013289;28;20041;-57
2021/12/03 20:06:10;;;;;;;7.10;3.83;;;;;;;;;;5013858;28;20056;-59
2021/12/03 20:08:36;;;;;;;6.05;3.50;;;;;;;;;;5011575;28;20080;-57
2021/12/03 20:11:07;;;;;;;5.13;2.63;;;;;;;;;;5011986;28;20049;-58
2021/12/03 20:13:33;;;;;;;12.75;3.60;;;;;;;;;;5009853;28;20081;-57
2021/12/03 20:21:07;;;;;;;5.93;3.00;;;;;;;;;;5012500;28;20061;-57
2021/12/03 20:23:39;;;;;;;8.15;2.80;;;;;;;;;;5010075;28;20092;-57
2021/12/03 20:31:21;;;;;;;8.50;3.20;;;;;;;;;;5011227;28;20026;-58
2021/12/03 20:38:56;;;;;;;8.00;2.88;;;;;;;;;;5010450;28;20038;-55
2021/12/03 20:42:14;;;;;;;7.78;3.15;;;;;;;;;;5009949;28;20046;-57
2021/12/03 20:47:00;;;;;;;10.27;5.13;;;;;;;;;;5009935;28;20068;-56
2021/12/03 21:10:26;;;;;;;12.32;4.68;;;;;;;;;;5008530;28;20501;-58
2021/12/03 21:12:54;;;;;;;12.57;4.85;;;;;;;;;;5009106;28;20423;-56
2021/12/03 21:15:26;;;;;;;12.38;5.80;;;;;;;;;;5009594;28;20989;-56
2021/12/03 21:18:12;;;;;;;8.63;4.72;;;;;;;;;;5010735;28;20045;-56
2021/12/03 21:20:51;;;;;;;13.50;5.85;;;;;;;;;;5009473;28;20120;-56
2021/12/03 21:23:19;;;;;;;9.85;5.60;;;;;;;;;;5010514;28;20097;-54
2021/12/03 21:25:50;;;;;;;14.02;5.65;;;;;;;;;;4988835;28;20210;-58
2021/12/03 21:28:21;;;;;;;10.25;5.05;;;;;;;;;;4988289;28;20050;-55
2021/12/03 21:39:10;;;;;;;13.15;5.38;;;;;;;;;;4988242;28;20048;-56
2021/12/03 21:41:36;;;;;;;8.93;4.70;;;;;;;;;;4987956;28;20042;-55
2021/12/03 21:44:06;;;;;;;11.23;5.53;;;;;;;;;;4991947;28;20031;-59
2021/12/03 21:46:34;;;;;;;11.77;5.85;;;;;;;;;;4989725;28;20049;-55
2021/12/03 21:49:00;;;;;;;12.07;5.72;;;;;;;;;;4990308;28;20049;-57
2021/12/03 21:51:26;;;;;;;11.82;5.45;;;;;;;;;;4991146;28;20057;-57
2021/12/03 21:53:53;;;;;;;9.10;5.57;;;;;;;;;;4990909;28;20145;-55
2021/12/03 21:56:21;;;;;;;8.27;5.45;;;;;;;;;;4987904;28;20042;-57
2021/12/03 21:58:47;;;;;;;12.98;5.35;;;;;;;;;;4988866;28;20050;-56
2021/12/03 22:01:13;;;;;;;11.70;5.55;;;;;;;;;;4988359;28;20033;-57
2021/12/03 22:03:39;;;;;;;13.82;5.95;;;;;;;;;;4985633;28;20120;-58
2021/12/03 22:06:05;;;;;;;16.17;5.90;;;;;;;;;;4988841;28;20125;-57
2021/12/03 22:08:31;;;;;;;9.52;5.82;;;;;;;;;;4985739;28;20526;-57
2021/12/03 22:10:58;;;;;;;9.82;5.50;;;;;;;;;;4985588;28;20042;-59
2021/12/03 22:13:24;;;;;;;15.38;6.00;;;;;;;;;;4987892;28;20038;-58
2021/12/03 22:15:51;;;;;;;13.15;5.70;;;;;;;;;;4988074;28;20121;-56
2021/12/03 22:18:17;;;;;;;13.55;6.03;;;;;;;;;;4985359;28;20092;-57
2021/12/03 22:20:43;;;;;;;10.88;5.70;;;;;;;;;;4986751;28;20492;-56
2021/12/03 22:23:09;;;;;;;10.15;5.50;;;;;;;;;;4986162;28;20038;-57
2021/12/03 22:25:35;;;;;;;11.35;6.05;;;;;;;;;;4989430;28;20908;-58
2021/12/03 22:28:02;;;;;;;12.60;6.28;;;;;;;;;;5003298;28;20054;-59
2021/12/03 22:30:28;;;;;;;11.68;5.75;;;;;;;;;;4986435;28;20042;-58
2021/12/03 22:32:54;;;;;;;13.32;6.10;;;;;;;;;;4988398;28;20045;-56
2021/12/03 22:35:21;;;;;;;12.35;6.30;;;;;;;;;;4990739;28;20074;-54
2021/12/03 22:37:47;;;;;;;15.40;6.72;;;;;;;;;;4995687;28;20085;-57
2021/12/03 22:40:13;;;;;;;11.05;6.40;;;;;;;;;;4994925;28;20755;-57